Time;durP1;ratioP1;P1;durP2;ratioP2;P2;SDS_P1;SDS_P2;PMS_P1;PMS_P2;Temp;Humidity;BMP_temperature;BMP_pressure;BME280_temperature;BME280_humidity;BME280_pressure;Samples;Min_cycle;Max_cycle;Signal;HPM_P1;HPM_P2
2023/12/13 00:00:30;;;;;;;19.30;15.38;;;;;;;;;;5076041;28;20039;-43
2023/12/13 00:02:55;;;;;;;25.73;18.90;;;;;;;;;;5090827;28;20020;-43
2023/12/13 00:05:20;;;;;;;20.30;16.35;;;;;;;;;;5083230;28;20055;-46
2023/12/13 00:07:46;;;;;;;20.27;16.00;;;;;;;;;;5077611;28;20104;-44
2023/12/13 00:10:11;;;;;;;19.05;15.55;;;;;;;;;;5075915;28;20096;-44
2023/12/13 00:12:36;;;;;;;17.40;15.38;;;;;;;;;;5076414;28;20021;-47
2023/12/13 00:15:02;;;;;;;19.13;14.85;;;;;;;;;;5074173;28;20040;-43
2023/12/13 00:17:28;;;;;;;18.23;13.63;;;;;;;;;;5075949;28;20474;-45
2023/12/13 00:19:54;;;;;;;20.90;15.13;;;;;;;;;;5072627;28;20386;-46
2023/12/13 00:22:19;;;;;;;19.00;15.65;;;;;;;;;;5079159;28;20036;-44
2023/12/13 00:24:44;;;;;;;18.88;14.55;;;;;;;;;;5076167;28;20119;-45
2023/12/13 00:27:10;;;;;;;18.40;13.68;;;;;;;;;;5076006;28;20020;-47
2023/12/13 00:29:35;;;;;;;16.73;15.02;;;;;;;;;;5081463;28;20093;-47
2023/12/13 00:32:01;;;;;;;15.23;13.63;;;;;;;;;;5079102;28;20091;-46
2023/12/13 00:34:26;;;;;;;18.67;15.95;;;;;;;;;;5074713;28;20044;-45
2023/12/13 00:36:52;;;;;;;18.05;14.85;;;;;;;;;;5074685;28;20555;-45
2023/12/13 00:39:17;;;;;;;15.43;13.20;;;;;;;;;;5075138;28;20035;-43
2023/12/13 00:41:42;;;;;;;16.75;14.02;;;;;;;;;;5077381;28;20025;-47
2023/12/13 00:44:08;;;;;;;19.38;14.55;;;;;;;;;;5076191;28;20066;-46
2023/12/13 00:46:33;;;;;;;17.60;13.95;;;;;;;;;;5076649;28;20052;-46
2023/12/13 00:48:59;;;;;;;15.10;13.43;;;;;;;;;;5083751;28;20039;-44
2023/12/13 00:51:24;;;;;;;15.82;13.85;;;;;;;;;;5069482;28;20481;-45
2023/12/13 00:53:50;;;;;;;18.30;13.70;;;;;;;;;;5057481;28;20058;-45
2023/12/13 00:56:15;;;;;;;21.73;13.95;;;;;;;;;;5075318;28;20024;-45
2023/12/13 00:58:42;;;;;;;18.80;13.90;;;;;;;;;;5073742;28;20025;-45
2023/12/13 01:01:08;;;;;;;15.15;13.55;;;;;;;;;;5075426;28;20029;-48
2023/12/13 01:03:34;;;;;;;17.40;14.20;;;;;;;;;;5080058;28;20070;-47
2023/12/13 01:05:59;;;;;;;16.10;12.75;;;;;;;;;;5076072;28;20028;-47
2023/12/13 01:08:25;;;;;;;17.33;14.20;;;;;;;;;;5074569;28;20098;-44
2023/12/13 01:10:50;;;;;;;17.63;14.05;;;;;;;;;;5074530;28;20031;-43
2023/12/13 01:13:15;;;;;;;16.27;13.00;;;;;;;;;;5075647;28;20040;-43
2023/12/13 01:15:41;;;;;;;17.90;13.43;;;;;;;;;;5075034;28;20437;-45
2023/12/13 01:18:06;;;;;;;15.02;12.73;;;;;;;;;;5071249;28;20036;-45
2023/12/13 01:20:32;;;;;;;15.15;12.23;;;;;;;;;;5074257;28;20085;-43
2023/12/13 01:22:57;;;;;;;15.18;13.18;;;;;;;;;;5074035;28;20047;-44
2023/12/13 01:25:23;;;;;;;18.98;14.68;;;;;;;;;;5072496;28;20503;-44
2023/12/13 01:27:48;;;;;;;14.73;13.05;;;;;;;;;;5074128;28;20028;-45
2023/12/13 01:30:14;;;;;;;16.55;13.07;;;;;;;;;;5074725;28;20024;-45
2023/12/13 01:32:39;;;;;;;18.27;14.93;;;;;;;;;;5073257;28;20027;-44
2023/12/13 01:35:05;;;;;;;19.27;15.02;;;;;;;;;;5075619;28;20089;-47
2023/12/13 01:37:31;;;;;;;18.33;13.60;;;;;;;;;;5075349;28;20734;-47
2023/12/13 01:39:56;;;;;;;15.57;13.10;;;;;;;;;;5074460;28;20037;-46
2023/12/13 01:42:25;;;;;;;14.63;11.77;;;;;;;;;;5072885;28;20025;-43
2023/12/13 01:44:50;;;;;;;17.17;12.93;;;;;;;;;;5074884;28;20508;-43
2023/12/13 01:47:19;;;;;;;16.40;13.07;;;;;;;;;;5075779;28;20040;-44
2023/12/13 01:49:45;;;;;;;16.73;12.80;;;;;;;;;;5076301;28;20076;-48
2023/12/13 01:52:12;;;;;;;14.30;12.77;;;;;;;;;;5068734;28;20583;-46
2023/12/13 01:54:38;;;;;;;15.60;12.90;;;;;;;;;;5075466;28;20048;-52
2023/12/13 01:57:04;;;;;;;19.52;14.85;;;;;;;;;;5075158;28;20063;-47
2023/12/13 01:59:32;;;;;;;17.80;14.13;;;;;;;;;;5072695;28;20041;-46
2023/12/13 02:01:58;;;;;;;17.88;14.02;;;;;;;;;;5074203;28;20393;-47
2023/12/13 02:04:25;;;;;;;16.05;13.15;;;;;;;;;;5074861;28;20127;-46
2023/12/13 02:06:51;;;;;;;14.65;12.35;;;;;;;;;;5073533;28;20498;-46
2023/12/13 02:09:17;;;;;;;14.82;13.10;;;;;;;;;;5071834;28;20060;-46
2023/12/13 02:11:42;;;;;;;15.60;13.90;;;;;;;;;;5072115;28;20013;-48
2023/12/13 02:14:07;;;;;;;15.98;14.38;;;;;;;;;;5074985;28;20036;-45
2023/12/13 02:16:34;;;;;;;14.18;12.27;;;;;;;;;;5083155;28;20032;-45
2023/12/13 02:19:00;;;;;;;16.08;14.38;;;;;;;;;;5074255;28;20417;-44
2023/12/13 02:21:25;;;;;;;12.82;11.43;;;;;;;;;;5071747;28;20095;-46
2023/12/13 02:23:55;;;;;;;16.98;14.32;;;;;;;;;;5074013;28;20052;-44
2023/12/13 02:26:20;;;;;;;15.07;13.30;;;;;;;;;;5074883;28;20071;-47
2023/12/13 02:28:46;;;;;;;15.20;12.88;;;;;;;;;;5074124;28;20033;-46
2023/12/13 02:31:13;;;;;;;12.15;10.38;;;;;;;;;;5067692;28;20025;-46
2023/12/13 02:33:40;;;;;;;12.43;11.00;;;;;;;;;;5077582;28;20072;-46
2023/12/13 02:36:06;;;;;;;13.60;10.63;;;;;;;;;;5074696;28;20039;-44
2023/12/13 02:38:32;;;;;;;15.30;12.85;;;;;;;;;;5073518;28;20067;-45
2023/12/13 02:40:57;;;;;;;15.95;12.20;;;;;;;;;;5070443;28;20363;-48
2023/12/13 02:43:23;;;;;;;15.27;12.27;;;;;;;;;;5079891;28;20050;-44
2023/12/13 02:45:48;;;;;;;13.52;10.90;;;;;;;;;;5077528;28;20465;-45
2023/12/13 02:48:14;;;;;;;18.02;10.70;;;;;;;;;;5076970;28;20040;-43
2023/12/13 02:50:39;;;;;;;12.15;10.85;;;;;;;;;;5081700;28;20171;-46
2023/12/13 02:53:08;;;;;;;14.80;11.02;;;;;;;;;;5080521;28;20119;-46
2023/12/13 02:55:33;;;;;;;11.90;9.88;;;;;;;;;;5078559;28;20374;-45
2023/12/13 02:57:59;;;;;;;12.45;10.68;;;;;;;;;;5076994;28;20089;-48
2023/12/13 03:00:25;;;;;;;11.98;10.20;;;;;;;;;;5077286;28;20020;-43
2023/12/13 03:02:50;;;;;;;13.63;11.18;;;;;;;;;;5078338;28;20029;-44
2023/12/13 03:05:16;;;;;;;14.00;11.27;;;;;;;;;;5079043;28;20024;-46
2023/12/13 03:07:41;;;;;;;15.48;12.18;;;;;;;;;;5077576;28;20032;-43
2023/12/13 03:10:07;;;;;;;17.52;12.15;;;;;;;;;;5076150;28;20554;-45
2023/12/13 03:12:33;;;;;;;19.30;13.18;;;;;;;;;;5076997;28;20016;-47
2023/12/13 03:14:58;;;;;;;15.65;12.70;;;;;;;;;;5076168;28;20105;-44
2023/12/13 03:17:24;;;;;;;16.15;13.65;;;;;;;;;;5077430;28;20089;-47
2023/12/13 03:19:49;;;;;;;14.60;12.82;;;;;;;;;;5076167;28;20042;-44
2023/12/13 03:22:14;;;;;;;18.58;13.07;;;;;;;;;;5076229;28;20032;-45
2023/12/13 03:24:40;;;;;;;15.43;13.68;;;;;;;;;;5076758;28;20120;-43
2023/12/13 03:27:05;;;;;;;15.35;13.50;;;;;;;;;;5082063;28;20052;-47
2023/12/13 03:29:31;;;;;;;17.70;13.70;;;;;;;;;;5078282;28;20060;-45
2023/12/13 03:31:57;;;;;;;17.45;15.65;;;;;;;;;;5075852;28;20085;-46
2023/12/13 03:34:22;;;;;;;16.10;12.20;;;;;;;;;;5077116;28;20683;-44
2023/12/13 03:36:47;;;;;;;14.93;13.40;;;;;;;;;;5074799;28;20498;-46
2023/12/13 03:39:13;;;;;;;15.48;13.18;;;;;;;;;;5078247;28;20032;-47
2023/12/13 03:41:38;;;;;;;15.07;13.43;;;;;;;;;;5076068;28;20059;-45
2023/12/13 03:44:04;;;;;;;14.90;13.38;;;;;;;;;;5075886;28;20130;-43
2023/12/13 03:46:29;;;;;;;14.60;13.07;;;;;;;;;;5077739;28;20090;-45
2023/12/13 03:48:55;;;;;;;15.05;12.60;;;;;;;;;;5076286;28;20044;-43
2023/12/13 03:51:20;;;;;;;13.75;11.95;;;;;;;;;;5076378;28;20024;-44
2023/12/13 03:53:45;;;;;;;15.75;12.52;;;;;;;;;;5076926;28;20098;-46
2023/12/13 03:56:12;;;;;;;13.93;12.00;;;;;;;;;;5076831;28;20355;-48
2023/12/13 03:58:38;;;;;;;14.98;12.02;;;;;;;;;;5087192;28;20048;-47
2023/12/13 04:01:04;;;;;;;16.23;12.18;;;;;;;;;;5075622;28;20034;-45
2023/12/13 04:03:29;;;;;;;15.57;13.95;;;;;;;;;;5092307;28;20127;-45
2023/12/13 04:05:54;;;;;;;15.75;13.45;;;;;;;;;;5075866;28;20028;-47
2023/12/13 04:08:20;;;;;;;15.88;14.10;;;;;;;;;;5075185;28;20040;-45
2023/12/13 04:10:45;;;;;;;15.00;12.00;;;;;;;;;;5074677;28;20058;-44
2023/12/13 04:13:11;;;;;;;16.67;14.48;;;;;;;;;;5074242;28;20476;-46
2023/12/13 04:15:36;;;;;;;20.02;16.05;;;;;;;;;;5076030;28;20020;-47
2023/12/13 04:18:01;;;;;;;20.77;17.83;;;;;;;;;;5075005;28;20398;-46
2023/12/13 04:20:27;;;;;;;21.30;17.90;;;;;;;;;;5077099;28;20119;-45
2023/12/13 04:22:53;;;;;;;19.20;17.13;;;;;;;;;;5074144;28;20696;-46
2023/12/13 04:25:18;;;;;;;17.52;15.68;;;;;;;;;;5076676;28;20120;-47
2023/12/13 04:27:45;;;;;;;17.45;15.55;;;;;;;;;;5080551;28;20017;-46
2023/12/13 04:30:11;;;;;;;18.83;13.20;;;;;;;;;;5074599;28;20089;-43
2023/12/13 04:32:37;;;;;;;18.67;15.65;;;;;;;;;;5074088;28;20104;-45
2023/12/13 04:35:03;;;;;;;17.70;13.98;;;;;;;;;;5073956;28;20510;-47
2023/12/13 04:37:29;;;;;;;18.00;14.32;;;;;;;;;;5075606;28;20107;-47
2023/12/13 04:39:54;;;;;;;18.42;14.80;;;;;;;;;;5074401;28;20107;-45
2023/12/13 04:42:20;;;;;;;21.40;18.50;;;;;;;;;;5075867;28;20033;-43
2023/12/13 04:44:45;;;;;;;18.77;16.23;;;;;;;;;;5090243;28;20084;-43
2023/12/13 04:47:11;;;;;;;19.88;15.50;;;;;;;;;;5075173;28;20021;-43
2023/12/13 04:49:37;;;;;;;21.08;17.65;;;;;;;;;;5075501;28;20403;-45
2023/12/13 04:52:03;;;;;;;19.15;14.65;;;;;;;;;;5074648;28;20044;-45
2023/12/13 04:54:29;;;;;;;18.85;15.70;;;;;;;;;;5074863;28;20044;-46
2023/12/13 04:56:54;;;;;;;19.00;13.98;;;;;;;;;;5075883;28;20426;-46
2023/12/13 04:59:20;;;;;;;17.45;14.25;;;;;;;;;;5076202;28;20406;-45
2023/12/13 05:01:45;;;;;;;18.75;15.35;;;;;;;;;;5074751;28;20064;-42
2023/12/13 05:04:11;;;;;;;16.60;14.85;;;;;;;;;;5088816;28;20051;-43
2023/12/13 05:06:36;;;;;;;18.85;15.20;;;;;;;;;;5075092;28;20382;-43
2023/12/13 05:09:02;;;;;;;16.15;14.05;;;;;;;;;;5074440;28;20074;-42
2023/12/13 05:11:27;;;;;;;18.08;16.17;;;;;;;;;;5075193;28;20694;-45
2023/12/13 05:13:53;;;;;;;16.70;13.07;;;;;;;;;;5053710;28;20120;-44
2023/12/13 05:16:18;;;;;;;14.95;12.88;;;;;;;;;;5073681;28;20064;-44
2023/12/13 05:18:44;;;;;;;14.57;12.95;;;;;;;;;;5072707;28;20124;-44
2023/12/13 05:21:09;;;;;;;15.52;12.30;;;;;;;;;;5075520;28;20407;-42
2023/12/13 05:23:35;;;;;;;15.35;13.75;;;;;;;;;;5071272;28;20056;-45
2023/12/13 05:26:00;;;;;;;15.85;12.07;;;;;;;;;;5075961;28;20506;-45
2023/12/13 05:28:25;;;;;;;14.35;12.88;;;;;;;;;;5070227;28;20039;-42
2023/12/13 05:30:51;;;;;;;17.33;13.65;;;;;;;;;;5081163;28;20021;-44
2023/12/13 05:33:16;;;;;;;15.20;13.68;;;;;;;;;;5078853;28;20033;-45
2023/12/13 05:35:41;;;;;;;16.23;14.43;;;;;;;;;;5074365;28;20020;-46
2023/12/13 05:38:07;;;;;;;15.48;12.40;;;;;;;;;;5075050;28;20128;-46
2023/12/13 05:40:32;;;;;;;16.55;12.93;;;;;;;;;;5075437;28;20020;-45
2023/12/13 05:42:58;;;;;;;14.25;12.00;;;;;;;;;;5075165;28;20055;-45
2023/12/13 05:45:24;;;;;;;16.15;14.02;;;;;;;;;;5070854;28;20048;-45
2023/12/13 05:47:49;;;;;;;16.45;14.38;;;;;;;;;;5054525;28;20035;-45
2023/12/13 05:50:16;;;;;;;15.23;12.63;;;;;;;;;;5067608;28;20095;-46
2023/12/13 05:52:41;;;;;;;13.68;12.02;;;;;;;;;;5076734;28;20413;-44
2023/12/13 05:55:07;;;;;;;14.65;12.43;;;;;;;;;;5086992;28;20035;-48
2023/12/13 05:57:32;;;;;;;13.85;11.77;;;;;;;;;;5074551;28;20165;-47
2023/12/13 05:59:58;;;;;;;13.30;12.07;;;;;;;;;;5077248;28;20036;-46
2023/12/13 06:02:24;;;;;;;13.18;10.85;;;;;;;;;;5071806;28;20036;-45
2023/12/13 06:04:51;;;;;;;15.15;12.93;;;;;;;;;;5073622;28;20514;-45
2023/12/13 06:07:16;;;;;;;13.73;11.40;;;;;;;;;;5072076;28;20037;-49
2023/12/13 06:09:42;;;;;;;13.05;11.65;;;;;;;;;;5074270;28;20044;-44
2023/12/13 06:12:08;;;;;;;15.95;12.10;;;;;;;;;;5073944;28;20028;-48
2023/12/13 06:14:33;;;;;;;11.52;10.30;;;;;;;;;;5073603;28;20128;-48
2023/12/13 06:16:59;;;;;;;15.38;12.90;;;;;;;;;;5074353;28;20059;-44
2023/12/13 06:19:27;;;;;;;13.77;12.43;;;;;;;;;;5071493;28;20041;-44
2023/12/13 06:21:52;;;;;;;15.07;13.52;;;;;;;;;;5069153;28;20028;-50
2023/12/13 06:24:18;;;;;;;12.80;11.50;;;;;;;;;;5071722;28;20037;-46
2023/12/13 06:26:43;;;;;;;13.07;11.73;;;;;;;;;;5074011;28;20020;-47
2023/12/13 06:29:11;;;;;;;15.25;13.18;;;;;;;;;;5057913;28;20083;-46
2023/12/13 06:31:37;;;;;;;13.70;11.68;;;;;;;;;;5077418;28;20056;-49
2023/12/13 06:34:02;;;;;;;14.10;12.43;;;;;;;;;;5072631;28;20104;-46
2023/12/13 06:36:28;;;;;;;15.52;12.52;;;;;;;;;;5079051;28;20536;-46
2023/12/13 06:38:53;;;;;;;15.48;13.27;;;;;;;;;;5073472;28;20044;-50
2023/12/13 06:41:19;;;;;;;15.52;12.15;;;;;;;;;;5072991;28;20094;-48
2023/12/13 06:43:44;;;;;;;15.43;13.13;;;;;;;;;;5074653;28;20127;-43
2023/12/13 06:46:09;;;;;;;17.63;13.27;;;;;;;;;;5074305;28;20096;-46
2023/12/13 06:48:35;;;;;;;16.77;13.20;;;;;;;;;;5076740;28;20452;-46
2023/12/13 06:51:00;;;;;;;17.77;13.80;;;;;;;;;;5071446;28;20371;-45
2023/12/13 06:53:26;;;;;;;19.05;14.23;;;;;;;;;;5073013;28;20146;-45
2023/12/13 06:55:51;;;;;;;18.77;15.63;;;;;;;;;;5078629;28;20121;-42
2023/12/13 06:58:17;;;;;;;18.92;15.00;;;;;;;;;;5064129;28;20040;-43
2023/12/13 07:00:42;;;;;;;18.02;15.38;;;;;;;;;;5069386;28;20020;-43
2023/12/13 07:03:07;;;;;;;20.77;14.80;;;;;;;;;;5086743;28;20036;-45
2023/12/13 07:05:33;;;;;;;19.80;14.38;;;;;;;;;;5086174;28;20109;-46
2023/12/13 07:07:58;;;;;;;16.75;13.98;;;;;;;;;;5070162;28;20036;-44
2023/12/13 07:10:26;;;;;;;18.75;16.80;;;;;;;;;;5064805;28;20107;-48
2023/12/13 07:12:51;;;;;;;20.42;16.80;;;;;;;;;;5068626;28;20083;-47
2023/12/13 07:15:17;;;;;;;18.27;14.68;;;;;;;;;;5070708;28;20562;-46
2023/12/13 07:17:42;;;;;;;19.50;14.90;;;;;;;;;;5068198;28;20514;-44
2023/12/13 07:20:10;;;;;;;17.30;14.82;;;;;;;;;;5067916;28;20050;-44
2023/12/13 07:22:36;;;;;;;21.30;16.25;;;;;;;;;;5070519;28;20028;-46
2023/12/13 07:25:01;;;;;;;15.95;14.15;;;;;;;;;;5071392;28;20580;-45
2023/12/13 07:27:27;;;;;;;19.05;15.55;;;;;;;;;;5078227;28;20020;-45
2023/12/13 07:29:52;;;;;;;19.42;14.60;;;;;;;;;;5080535;28;20578;-44
2023/12/13 07:32:17;;;;;;;18.95;15.93;;;;;;;;;;5073807;28;20033;-46
2023/12/13 07:34:44;;;;;;;16.83;14.02;;;;;;;;;;5074873;28;20043;-44
2023/12/13 07:37:09;;;;;;;20.98;13.75;;;;;;;;;;5076064;28;20071;-44
2023/12/13 07:39:36;;;;;;;19.63;15.65;;;;;;;;;;5074313;28;20040;-44
2023/12/13 07:42:03;;;;;;;19.98;17.08;;;;;;;;;;5077540;28;20029;-43
2023/12/13 07:44:30;;;;;;;19.77;17.63;;;;;;;;;;5076580;28;20040;-45
2023/12/13 07:46:55;;;;;;;20.05;16.17;;;;;;;;;;5076423;28;20033;-44
2023/12/13 07:49:21;;;;;;;24.58;20.00;;;;;;;;;;5075989;28;20038;-47
2023/12/13 07:51:46;;;;;;;25.80;18.00;;;;;;;;;;5074839;28;20110;-45
2023/12/13 07:54:15;;;;;;;23.13;18.75;;;;;;;;;;5076212;28;20125;-45
2023/12/13 07:56:41;;;;;;;19.92;16.02;;;;;;;;;;5066345;28;20031;-45
2023/12/13 07:59:07;;;;;;;19.00;17.05;;;;;;;;;;5069716;28;20044;-44
2023/12/13 08:01:32;;;;;;;23.13;17.98;;;;;;;;;;5076243;28;20072;-49
2023/12/13 08:03:58;;;;;;;21.67;16.13;;;;;;;;;;5074581;28;20067;-46
2023/12/13 08:06:24;;;;;;;20.45;17.73;;;;;;;;;;5074805;28;20474;-46
2023/12/13 08:08:51;;;;;;;20.58;16.80;;;;;;;;;;5076527;28;20174;-48
2023/12/13 08:11:16;;;;;;;26.13;18.40;;;;;;;;;;5076796;28;20032;-48
2023/12/13 08:13:42;;;;;;;21.60;16.58;;;;;;;;;;5072959;28;20029;-50
2023/12/13 08:16:09;;;;;;;20.27;17.48;;;;;;;;;;5074963;28;20028;-46
2023/12/13 08:18:35;;;;;;;21.30;16.58;;;;;;;;;;5075100;28;20037;-43
2023/12/13 08:21:01;;;;;;;21.98;16.83;;;;;;;;;;5072746;28;20045;-46
2023/12/13 08:23:26;;;;;;;21.92;15.95;;;;;;;;;;5075668;28;20564;-46
2023/12/13 08:25:52;;;;;;;19.25;16.45;;;;;;;;;;5073096;28;20040;-46
2023/12/13 08:28:17;;;;;;;19.75;14.23;;;;;;;;;;5072185;28;20123;-46
2023/12/13 08:30:42;;;;;;;17.77;14.15;;;;;;;;;;5078960;28;20025;-49
2023/12/13 08:33:08;;;;;;;16.90;13.68;;;;;;;;;;5075663;28;20044;-44
2023/12/13 08:35:33;;;;;;;16.15;13.52;;;;;;;;;;5058355;28;20071;-44
2023/12/13 08:37:59;;;;;;;13.90;11.75;;;;;;;;;;5074236;28;20041;-47
2023/12/13 08:40:24;;;;;;;17.38;12.73;;;;;;;;;;5075697;28;20031;-47
2023/12/13 08:42:50;;;;;;;14.55;12.20;;;;;;;;;;5084563;28;20021;-47
2023/12/13 08:45:15;;;;;;;20.83;14.23;;;;;;;;;;5074422;28;20036;-44
2023/12/13 08:47:41;;;;;;;13.07;11.15;;;;;;;;;;5073558;28;20020;-44
2023/12/13 08:50:07;;;;;;;11.32;10.13;;;;;;;;;;5075110;28;20052;-47
2023/12/13 08:52:32;;;;;;;11.02;9.93;;;;;;;;;;5072442;28;20055;-45
2023/12/13 08:54:58;;;;;;;11.45;10.32;;;;;;;;;;5075420;28;20036;-44
2023/12/13 08:57:23;;;;;;;9.77;8.77;;;;;;;;;;5075346;28;20028;-48
2023/12/13 08:59:49;;;;;;;10.55;7.13;;;;;;;;;;5072276;28;20044;-45
2023/12/13 09:02:14;;;;;;;8.75;6.80;;;;;;;;;;5075169;28;20385;-49
2023/12/13 09:04:39;;;;;;;7.85;7.05;;;;;;;;;;5071959;28;20043;-45
2023/12/13 09:07:06;;;;;;;6.10;5.13;;;;;;;;;;5073813;28;20025;-47
2023/12/13 09:09:31;;;;;;;6.25;5.65;;;;;;;;;;5070831;28;20071;-43
2023/12/13 09:12:00;;;;;;;6.78;3.65;;;;;;;;;;5073482;28;20110;-47
2023/12/13 09:14:27;;;;;;;;;;;;;;;;;;5076691;28;20060;-47
2023/12/13 09:16:52;;;;;;;3.67;3.20;;;;;;;;;;5074375;28;19916;-45
2023/12/13 09:19:18;;;;;;;4.32;3.70;;;;;;;;;;5073259;28;20051;-45
2023/12/13 09:21:43;;;;;;;13.10;4.05;;;;;;;;;;5064909;28;20103;-46
2023/12/13 09:24:09;;;;;;;5.32;4.25;;;;;;;;;;5066578;28;20037;-50
2023/12/13 09:26:38;;;;;;;3.92;3.25;;;;;;;;;;5076938;28;20024;-49
2023/12/13 09:29:04;;;;;;;3.95;3.55;;;;;;;;;;5080317;28;20032;-46
2023/12/13 09:31:30;;;;;;;3.65;2.30;;;;;;;;;;5067827;28;20035;-44
2023/12/13 09:33:57;;;;;;;2.47;1.67;;;;;;;;;;5067650;28;20036;-43
2023/12/13 09:36:22;;;;;;;2.92;1.05;;;;;;;;;;5075424;28;20074;-43
2023/12/13 09:38:48;;;;;;;2.67;1.00;;;;;;;;;;5073572;28;20041;-44
2023/12/13 09:41:23;;;;;;;3.40;1.33;;;;;;;;;;5075988;28;20108;-46
2023/12/13 09:43:49;;;;;;;2.58;1.15;;;;;;;;;;5073268;28;20064;-46
2023/12/13 09:46:18;;;;;;;2.60;1.35;;;;;;;;;;5074217;28;20363;-48
2023/12/13 09:48:44;;;;;;;2.42;0.95;;;;;;;;;;5075048;28;20494;-44
2023/12/13 09:51:11;;;;;;;2.97;1.38;;;;;;;;;;5089180;28;20056;-44
2023/12/13 09:53:38;;;;;;;2.17;1.33;;;;;;;;;;5068394;28;20189;-45
2023/12/13 09:56:04;;;;;;;2.60;1.95;;;;;;;;;;5071609;28;20036;-45
2023/12/13 09:58:30;;;;;;;3.08;2.25;;;;;;;;;;5071995;28;20618;-43
2023/12/13 10:00:56;;;;;;;3.17;1.52;;;;;;;;;;5063276;28;20020;-46
2023/12/13 10:03:21;;;;;;;5.00;1.90;;;;;;;;;;5082980;28;20052;-44
2023/12/13 10:05:48;;;;;;;3.67;1.67;;;;;;;;;;5073386;28;20032;-44
2023/12/13 10:08:14;;;;;;;3.15;2.33;;;;;;;;;;5077700;28;20037;-46
2023/12/13 10:10:42;;;;;;;3.20;1.80;;;;;;;;;;5075300;28;20025;-43
2023/12/13 10:13:09;;;;;;;2.95;1.65;;;;;;;;;;5075503;28;20085;-44
2023/12/13 10:15:36;;;;;;;2.05;0.98;;;;;;;;;;5078315;28;20038;-47
2023/12/13 10:18:01;;;;;;;4.47;1.05;;;;;;;;;;5077812;28;20067;-50
2023/12/13 10:20:29;;;;;;;2.47;0.88;;;;;;;;;;5077168;28;20016;-44
2023/12/13 10:22:55;;;;;;;3.53;1.15;;;;;;;;;;5076647;28;20024;-48
2023/12/13 10:25:21;;;;;;;1.67;1.55;;;;;;;;;;5078599;28;20058;-48
2023/12/13 10:27:47;;;;;;;2.80;0.57;;;;;;;;;;5076510;28;20078;-45
2023/12/13 10:30:12;;;;;;;2.20;0.70;;;;;;;;;;5079228;28;20421;-47
2023/12/13 10:32:38;;;;;;;2.45;1.50;;;;;;;;;;5077912;28;20405;-42
2023/12/13 10:35:05;;;;;;;2.45;0.65;;;;;;;;;;5089681;28;20028;-45
2023/12/13 10:37:33;;;;;;;2.42;0.95;;;;;;;;;;5080735;28;20061;-45
2023/12/13 10:39:59;;;;;;;2.00;1.33;;;;;;;;;;5075196;28;20028;-44
2023/12/13 10:42:26;;;;;;;3.03;0.47;;;;;;;;;;5079291;28;20394;-46
2023/12/13 10:44:52;;;;;;;1.52;0.55;;;;;;;;;;5083088;28;20060;-45
2023/12/13 10:47:23;;;;;;;1.88;0.40;;;;;;;;;;5076664;28;20024;-46
2023/12/13 10:49:52;;;;;;;2.40;0.80;;;;;;;;;;5075497;28;20044;-46
2023/12/13 10:52:20;;;;;;;6.30;1.48;;;;;;;;;;5075055;28;20102;-45
2023/12/13 10:54:47;;;;;;;3.28;1.58;;;;;;;;;;5076556;28;20037;-45
2023/12/13 10:57:13;;;;;;;3.30;1.00;;;;;;;;;;5074122;28;20039;-47
2023/12/13 10:59:43;;;;;;;3.20;2.67;;;;;;;;;;5076344;28;20435;-44
2023/12/13 11:02:12;;;;;;;4.55;2.03;;;;;;;;;;5071824;28;20020;-45
2023/12/13 11:04:38;;;;;;;2.95;1.70;;;;;;;;;;5089653;28;20410;-47
2023/12/13 11:07:04;;;;;;;4.65;0.93;;;;;;;;;;5078281;28;20078;-43
2023/12/13 11:09:30;;;;;;;2.65;1.08;;;;;;;;;;5077555;28;20033;-50
2023/12/13 11:11:59;;;;;;;2.15;1.33;;;;;;;;;;5068106;28;20024;-47
2023/12/13 11:14:28;;;;;;;2.05;0.88;;;;;;;;;;5068258;28;20040;-44
2023/12/13 11:16:57;;;;;;;3.40;1.33;;;;;;;;;;5070727;28;20056;-46
2023/12/13 11:19:25;;;;;;;2.22;0.88;;;;;;;;;;5073029;28;20102;-48
2023/12/13 11:21:50;;;;;;;2.05;0.75;;;;;;;;;;5072550;28;20107;-48
2023/12/13 11:24:19;;;;;;;2.55;0.95;;;;;;;;;;5070398;28;20124;-45
2023/12/13 11:26:50;;;;;;;2.78;0.80;;;;;;;;;;5067270;28;20027;-48
2023/12/13 11:29:20;;;;;;;2.35;0.60;;;;;;;;;;5068334;28;20037;-46
2023/12/13 11:32:05;;;;;;;3.03;1.67;;;;;;;;;;5068818;28;20027;-46
2023/12/13 11:34:42;;;;;;;2.90;1.02;;;;;;;;;;5072294;28;20273;-45
2023/12/13 11:37:11;;;;;;;1.85;0.98;;;;;;;;;;5070391;28;20028;-46
2023/12/13 11:39:38;;;;;;;4.80;1.02;;;;;;;;;;5071074;28;20184;-46
2023/12/13 11:42:06;;;;;;;5.80;2.28;;;;;;;;;;5071820;28;20031;-46
2023/12/13 11:44:33;;;;;;;9.55;3.17;;;;;;;;;;5072885;28;20041;-46
2023/12/13 11:47:04;;;;;;;8.82;2.55;;;;;;;;;;5067647;28;20035;-47
2023/12/13 11:49:29;;;;;;;3.50;1.13;;;;;;;;;;5070877;28;20123;-50
2023/12/13 11:51:56;;;;;;;5.95;1.60;;;;;;;;;;5076016;28;20095;-46
2023/12/13 11:54:22;;;;;;;6.00;2.05;;;;;;;;;;5080273;28;20424;-47
2023/12/13 11:56:48;;;;;;;6.70;3.40;;;;;;;;;;5081597;28;20158;-46
2023/12/13 11:59:14;;;;;;;7.38;4.10;;;;;;;;;;5074737;28;20506;-49
2023/12/13 12:01:40;;;;;;;8.82;3.08;;;;;;;;;;5076126;28;20024;-45
2023/12/13 12:04:06;;;;;;;7.60;2.13;;;;;;;;;;5077829;28;20576;-47
2023/12/13 12:06:32;;;;;;;9.68;2.33;;;;;;;;;;5072871;28;20755;-45
2023/12/13 12:09:00;;;;;;;5.70;1.73;;;;;;;;;;5072598;28;20135;-48
2023/12/13 12:11:26;;;;;;;;;;;;;;;;;;5084528;28;20039;-47
2023/12/13 12:13:52;;;;;;;9.45;1.75;;;;;;;;;;5079153;28;19920;-47
2023/12/13 12:16:17;;;;;;;7.95;1.23;;;;;;;;;;5084492;28;20079;-46
2023/12/13 12:18:43;;;;;;;9.30;1.58;;;;;;;;;;5074392;28;20406;-51
2023/12/13 12:21:10;;;;;;;6.10;1.65;;;;;;;;;;5074101;28;20044;-49
2023/12/13 12:23:38;;;;;;;5.88;1.15;;;;;;;;;;5072479;28;20127;-47
2023/12/13 12:26:08;;;;;;;7.45;1.70;;;;;;;;;;5082054;28;20028;-47
2023/12/13 12:28:34;;;;;;;6.47;1.52;;;;;;;;;;5072000;28;20056;-47
2023/12/13 12:30:59;;;;;;;8.68;2.20;;;;;;;;;;5073577;28;20043;-51
2023/12/13 12:33:24;;;;;;;7.38;1.42;;;;;;;;;;5074293;28;20513;-51
2023/12/13 12:35:50;;;;;;;8.93;1.33;;;;;;;;;;5075113;28;20542;-48
2023/12/13 12:38:15;;;;;;;8.63;3.35;;;;;;;;;;5074062;28;20033;-47
2023/12/13 12:40:42;;;;;;;6.25;1.83;;;;;;;;;;5075093;28;20032;-49
2023/12/13 12:43:08;;;;;;;6.57;1.48;;;;;;;;;;5074970;28;20036;-46
2023/12/13 12:45:33;;;;;;;9.27;2.03;;;;;;;;;;5076793;28;20035;-48
2023/12/13 12:47:59;;;;;;;6.05;3.08;;;;;;;;;;5077144;28;20054;-49
2023/12/13 12:50:24;;;;;;;6.63;1.33;;;;;;;;;;5075442;28;20482;-47
2023/12/13 12:52:50;;;;;;;5.22;1.40;;;;;;;;;;5069189;28;20086;-48
2023/12/13 12:55:15;;;;;;;8.27;1.88;;;;;;;;;;5074439;28;20027;-49
2023/12/13 12:57:41;;;;;;;6.65;1.90;;;;;;;;;;5075174;28;20056;-46
2023/12/13 13:00:07;;;;;;;4.85;2.38;;;;;;;;;;5075637;28;20048;-46
2023/12/13 13:02:32;;;;;;;5.45;1.65;;;;;;;;;;5090576;28;21123;-47
2023/12/13 13:04:57;;;;;;;7.68;1.80;;;;;;;;;;5071769;28;20036;-47
2023/12/13 13:07:23;;;;;;;8.25;2.03;;;;;;;;;;5073571;28;20128;-49
2023/12/13 13:09:48;;;;;;;10.45;3.10;;;;;;;;;;5074198;28;20045;-49
2023/12/13 13:12:14;;;;;;;4.65;1.58;;;;;;;;;;5084097;28;20039;-49
2023/12/13 13:14:39;;;;;;;10.60;2.30;;;;;;;;;;5075342;28;20036;-49
2023/12/13 13:17:05;;;;;;;4.97;0.90;;;;;;;;;;5057830;28;20036;-47
2023/12/13 13:19:30;;;;;;;6.90;1.38;;;;;;;;;;5075259;28;20044;-46
2023/12/13 13:21:56;;;;;;;8.05;2.50;;;;;;;;;;5075908;28;20028;-48
2023/12/13 13:24:22;;;;;;;5.40;1.73;;;;;;;;;;5083081;28;20036;-46
2023/12/13 13:26:48;;;;;;;2.33;0.70;;;;;;;;;;5079236;28;20032;-48
2023/12/13 13:29:13;;;;;;;3.45;1.45;;;;;;;;;;5079458;28;20498;-47
2023/12/13 13:31:39;;;;;;;4.78;0.80;;;;;;;;;;5075860;28;20063;-46
2023/12/13 13:34:04;;;;;;;6.80;2.58;;;;;;;;;;5071876;28;20037;-48
2023/12/13 13:36:30;;;;;;;4.95;1.52;;;;;;;;;;5071975;28;20085;-48
2023/12/13 13:38:56;;;;;;;7.20;1.65;;;;;;;;;;5073009;28;20464;-47
2023/12/13 13:41:22;;;;;;;5.72;2.15;;;;;;;;;;5076585;28;20056;-45
2023/12/13 13:43:48;;;;;;;5.30;0.80;;;;;;;;;;5071866;28;20060;-45
2023/12/13 13:46:13;;;;;;;5.90;1.45;;;;;;;;;;5076037;28;20367;-46
2023/12/13 13:48:39;;;;;;;8.95;1.63;;;;;;;;;;5075448;28;20029;-46
2023/12/13 13:51:05;;;;;;;10.10;1.00;;;;;;;;;;5073871;28;20028;-49
2023/12/13 13:53:30;;;;;;;5.97;1.75;;;;;;;;;;5057167;28;20152;-48
2023/12/13 13:55:56;;;;;;;5.90;0.77;;;;;;;;;;5075975;28;20465;-52
2023/12/13 13:58:21;;;;;;;3.63;0.90;;;;;;;;;;5072437;28;20582;-47
2023/12/13 14:00:46;;;;;;;7.97;1.63;;;;;;;;;;5070206;28;20024;-47
2023/12/13 14:03:13;;;;;;;2.85;0.80;;;;;;;;;;5090794;28;20033;-44
2023/12/13 14:05:39;;;;;;;3.65;2.45;;;;;;;;;;5072696;28;20020;-50
2023/12/13 14:08:13;;;;;;;5.60;0.85;;;;;;;;;;5089878;28;20050;-47
2023/12/13 14:10:40;;;;;;;7.22;1.98;;;;;;;;;;5077294;28;20025;-51
2023/12/13 14:13:07;;;;;;;3.63;1.42;;;;;;;;;;5081331;28;20056;-47
2023/12/13 14:15:33;;;;;;;6.05;1.20;;;;;;;;;;5074026;28;20075;-48
2023/12/13 14:17:58;;;;;;;5.55;1.25;;;;;;;;;;5077744;28;20099;-49